sensor_id;sensor_type;location;lat;lon;timestamp;temperature;humidity
27534;DHT22;14973;51.460;7.008;2023-03-19T00:01:53;12.30;1.00
27534;DHT22;14973;51.460;7.008;2023-03-19T00:04:19;12.20;1.90
27534;DHT22;14973;51.460;7.008;2023-03-19T00:06:45;12.20;1.00
27534;DHT22;14973;51.460;7.008;2023-03-19T00:09:10;12.10;8.10
27534;DHT22;14973;51.460;7.008;2023-03-19T00:11:36;12.00;12.60
27534;DHT22;14973;51.460;7.008;2023-03-19T00:14:02;12.00;24.10
27534;DHT22;14973;51.460;7.008;2023-03-19T00:16:28;12.10;8.60
27534;DHT22;14973;51.460;7.008;2023-03-19T00:18:54;12.00;11.70
27534;DHT22;14973;51.460;7.008;2023-03-19T00:21:20;11.90;13.70
27534;DHT22;14973;51.460;7.008;2023-03-19T00:23:46;11.90;19.70
27534;DHT22;14973;51.460;7.008;2023-03-19T00:26:12;11.90;14.90
27534;DHT22;14973;51.460;7.008;2023-03-19T00:28:37;12.00;26.00
27534;DHT22;14973;51.460;7.008;2023-03-19T00:31:08;12.00;25.30
27534;DHT22;14973;51.460;7.008;2023-03-19T00:33:34;12.00;20.40
27534;DHT22;14973;51.460;7.008;2023-03-19T00:36:00;12.10;17.30
27534;DHT22;14973;51.460;7.008;2023-03-19T00:38:25;12.10;33.00
27534;DHT22;14973;51.460;7.008;2023-03-19T00:40:51;12.00;39.30
27534;DHT22;14973;51.460;7.008;2023-03-19T00:43:17;11.90;45.40
27534;DHT22;14973;51.460;7.008;2023-03-19T00:45:43;11.90;50.70
27534;DHT22;14973;51.460;7.008;2023-03-19T00:48:08;11.90;50.00
27534;DHT22;14973;51.460;7.008;2023-03-19T00:50:34;11.80;51.20
27534;DHT22;14973;51.460;7.008;2023-03-19T00:53:00;11.80;45.70
27534;DHT22;14973;51.460;7.008;2023-03-19T00:55:25;11.80;51.30
27534;DHT22;14973;51.460;7.008;2023-03-19T00:57:51;11.70;57.20
27534;DHT22;14973;51.460;7.008;2023-03-19T01:00:18;11.60;64.50
27534;DHT22;14973;51.460;7.008;2023-03-19T01:02:44;11.50;67.70
27534;DHT22;14973;51.460;7.008;2023-03-19T01:05:10;11.40;77.00
27534;DHT22;14973;51.460;7.008;2023-03-19T01:07:35;11.30;84.60
27534;DHT22;14973;51.460;7.008;2023-03-19T01:10:01;11.10;91.60
27534;DHT22;14973;51.460;7.008;2023-03-19T01:12:27;11.10;96.40
27534;DHT22;14973;51.460;7.008;2023-03-19T01:14:53;11.10;98.40
27534;DHT22;14973;51.460;7.008;2023-03-19T01:17:18;11.00;99.90
27534;DHT22;14973;51.460;7.008;2023-03-19T01:19:44;10.90;99.90
27534;DHT22;14973;51.460;7.008;2023-03-19T01:22:10;10.90;99.90
27534;DHT22;14973;51.460;7.008;2023-03-19T01:24:35;10.90;99.90
27534;DHT22;14973;51.460;7.008;2023-03-19T01:27:01;10.90;99.90
27534;DHT22;14973;51.460;7.008;2023-03-19T01:29:27;10.90;99.90
27534;DHT22;14973;51.460;7.008;2023-03-19T01:31:52;10.80;99.90
27534;DHT22;14973;51.460;7.008;2023-03-19T01:34:18;10.70;99.90
27534;DHT22;14973;51.460;7.008;2023-03-19T01:36:43;10.70;99.90
27534;DHT22;14973;51.460;7.008;2023-03-19T01:39:09;10.80;99.90
27534;DHT22;14973;51.460;7.008;2023-03-19T01:41:36;10.80;99.90
27534;DHT22;14973;51.460;7.008;2023-03-19T01:44:01;10.80;99.90
27534;DHT22;14973;51.460;7.008;2023-03-19T01:46:33;10.90;95.80
27534;DHT22;14973;51.460;7.008;2023-03-19T01:49:03;10.90;85.90
27534;DHT22;14973;51.460;7.008;2023-03-19T01:51:39;11.00;65.80
27534;DHT22;14973;51.460;7.008;2023-03-19T01:54:08;11.00;58.20
27534;DHT22;14973;51.460;7.008;2023-03-19T01:56:39;11.10;48.10
27534;DHT22;14973;51.460;7.008;2023-03-19T01:59:11;11.10;45.60
27534;DHT22;14973;51.460;7.008;2023-03-19T02:01:45;11.10;44.10
27534;DHT22;14973;51.460;7.008;2023-03-19T02:04:12;11.10;40.80
27534;DHT22;14973;51.460;7.008;2023-03-19T02:06:39;11.10;45.80
27534;DHT22;14973;51.460;7.008;2023-03-19T02:09:05;11.10;39.50
27534;DHT22;14973;51.460;7.008;2023-03-19T02:11:31;11.10;41.70
27534;DHT22;14973;51.460;7.008;2023-03-19T02:13:57;11.20;38.40
27534;DHT22;14973;51.460;7.008;2023-03-19T02:16:23;11.20;35.60
27534;DHT22;14973;51.460;7.008;2023-03-19T02:18:49;11.20;26.90
27534;DHT22;14973;51.460;7.008;2023-03-19T02:21:16;11.30;22.50
27534;DHT22;14973;51.460;7.008;2023-03-19T02:24:21;11.20;19.90
27534;DHT22;14973;51.460;7.008;2023-03-19T02:26:45;11.30;19.30
27534;DHT22;14973;51.460;7.008;2023-03-19T02:29:12;11.30;17.30
27534;DHT22;14973;51.460;7.008;2023-03-19T02:31:38;11.30;20.10
27534;DHT22;14973;51.460;7.008;2023-03-19T02:34:15;11.30;11.30
27534;DHT22;14973;51.460;7.008;2023-03-19T02:36:54;11.40;1.00
27534;DHT22;14973;51.460;7.008;2023-03-19T02:39:30;11.50;1.00
27534;DHT22;14973;51.460;7.008;2023-03-19T02:41:57;11.50;1.00
27534;DHT22;14973;51.460;7.008;2023-03-19T02:44:23;11.50;1.00
27534;DHT22;14973;51.460;7.008;2023-03-19T02:46:49;11.50;1.00
27534;DHT22;14973;51.460;7.008;2023-03-19T02:49:15;11.50;1.00
27534;DHT22;14973;51.460;7.008;2023-03-19T02:51:40;11.50;1.00
27534;DHT22;14973;51.460;7.008;2023-03-19T02:54:06;11.60;1.00
27534;DHT22;14973;51.460;7.008;2023-03-19T02:56:32;11.70;1.00
27534;DHT22;14973;51.460;7.008;2023-03-19T02:58:58;11.80;1.00
27534;DHT22;14973;51.460;7.008;2023-03-19T03:01:24;11.90;1.00
27534;DHT22;14973;51.460;7.008;2023-03-19T03:03:50;11.90;1.00
27534;DHT22;14973;51.460;7.008;2023-03-19T03:06:16;12.00;1.00
27534;DHT22;14973;51.460;7.008;2023-03-19T03:08:42;12.00;1.00
27534;DHT22;14973;51.460;7.008;2023-03-19T03:11:08;12.00;1.00
27534;DHT22;14973;51.460;7.008;2023-03-19T03:13:34;12.00;1.00
27534;DHT22;14973;51.460;7.008;2023-03-19T03:16:00;11.90;1.00
27534;DHT22;14973;51.460;7.008;2023-03-19T03:18:26;12.00;1.00
27534;DHT22;14973;51.460;7.008;2023-03-19T03:20:52;12.00;1.00
27534;DHT22;14973;51.460;7.008;2023-03-19T03:23:18;12.00;1.00
27534;DHT22;14973;51.460;7.008;2023-03-19T03:25:48;12.00;1.00
27534;DHT22;14973;51.460;7.008;2023-03-19T03:28:13;11.90;1.00
27534;DHT22;14973;51.460;7.008;2023-03-19T03:30:39;11.90;1.00
27534;DHT22;14973;51.460;7.008;2023-03-19T03:33:04;12.00;1.00
27534;DHT22;14973;51.460;7.008;2023-03-19T03:35:31;12.00;1.00
27534;DHT22;14973;51.460;7.008;2023-03-19T03:37:57;12.00;1.00
27534;DHT22;14973;51.460;7.008;2023-03-19T03:40:23;12.00;1.00
27534;DHT22;14973;51.460;7.008;2023-03-19T03:42:49;12.10;1.00
27534;DHT22;14973;51.460;7.008;2023-03-19T03:45:15;12.00;1.00
27534;DHT22;14973;51.460;7.008;2023-03-19T03:47:41;12.10;1.00
27534;DHT22;14973;51.460;7.008;2023-03-19T03:50:07;12.10;1.00
27534;DHT22;14973;51.460;7.008;2023-03-19T03:52:35;12.20;1.00
27534;DHT22;14973;51.460;7.008;2023-03-19T03:55:01;12.10;1.00
27534;DHT22;14973;51.460;7.008;2023-03-19T03:57:27;12.20;1.00
27534;DHT22;14973;51.460;7.008;2023-03-19T03:59:53;12.10;1.00
27534;DHT22;14973;51.460;7.008;2023-03-19T04:02:19;12.10;1.00
27534;DHT22;14973;51.460;7.008;2023-03-19T04:04:45;12.10;1.00
27534;DHT22;14973;51.460;7.008;2023-03-19T04:07:10;12.10;1.00
27534;DHT22;14973;51.460;7.008;2023-03-19T04:09:36;12.10;1.00
27534;DHT22;14973;51.460;7.008;2023-03-19T04:12:02;12.10;1.00
27534;DHT22;14973;51.460;7.008;2023-03-19T04:14:28;12.10;1.00
27534;DHT22;14973;51.460;7.008;2023-03-19T04:16:53;12.10;1.00
27534;DHT22;14973;51.460;7.008;2023-03-19T04:19:19;12.00;1.00
27534;DHT22;14973;51.460;7.008;2023-03-19T04:21:45;12.00;1.00
27534;DHT22;14973;51.460;7.008;2023-03-19T04:24:11;12.00;1.00
27534;DHT22;14973;51.460;7.008;2023-03-19T04:26:37;11.90;1.00
27534;DHT22;14973;51.460;7.008;2023-03-19T04:29:03;12.00;1.00
27534;DHT22;14973;51.460;7.008;2023-03-19T04:31:28;11.90;1.00
27534;DHT22;14973;51.460;7.008;2023-03-19T04:33:54;11.90;1.00
27534;DHT22;14973;51.460;7.008;2023-03-19T04:36:20;11.90;1.00
27534;DHT22;14973;51.460;7.008;2023-03-19T04:38:45;11.90;1.00
27534;DHT22;14973;51.460;7.008;2023-03-19T04:41:12;11.80;1.00
27534;DHT22;14973;51.460;7.008;2023-03-19T04:43:38;11.90;1.00
27534;DHT22;14973;51.460;7.008;2023-03-19T04:46:04;11.80;1.00
27534;DHT22;14973;51.460;7.008;2023-03-19T04:48:32;11.80;1.00
27534;DHT22;14973;51.460;7.008;2023-03-19T04:51:00;11.80;1.00
27534;DHT22;14973;51.460;7.008;2023-03-19T04:53:27;11.80;1.00
27534;DHT22;14973;51.460;7.008;2023-03-19T04:55:53;11.80;1.00
27534;DHT22;14973;51.460;7.008;2023-03-19T04:58:19;11.90;1.00
27534;DHT22;14973;51.460;7.008;2023-03-19T05:00:45;12.00;1.00
27534;DHT22;14973;51.460;7.008;2023-03-19T05:03:15;12.00;1.00
27534;DHT22;14973;51.460;7.008;2023-03-19T05:05:41;11.90;1.00
27534;DHT22;14973;51.460;7.008;2023-03-19T05:08:07;11.90;1.00
27534;DHT22;14973;51.460;7.008;2023-03-19T05:10:34;11.90;1.00
27534;DHT22;14973;51.460;7.008;2023-03-19T05:13:00;11.90;1.00
27534;DHT22;14973;51.460;7.008;2023-03-19T05:15:26;12.00;1.00
27534;DHT22;14973;51.460;7.008;2023-03-19T05:17:52;12.00;1.00
27534;DHT22;14973;51.460;7.008;2023-03-19T05:20:18;12.00;1.00
27534;DHT22;14973;51.460;7.008;2023-03-19T05:22:44;12.00;1.00
27534;DHT22;14973;51.460;7.008;2023-03-19T05:25:11;12.00;1.00
27534;DHT22;14973;51.460;7.008;2023-03-19T05:27:37;12.00;1.00
27534;DHT22;14973;51.460;7.008;2023-03-19T05:30:04;12.00;1.00
27534;DHT22;14973;51.460;7.008;2023-03-19T05:32:30;12.00;1.00
27534;DHT22;14973;51.460;7.008;2023-03-19T05:34:56;11.90;1.00
27534;DHT22;14973;51.460;7.008;2023-03-19T05:37:22;11.90;1.00
27534;DHT22;14973;51.460;7.008;2023-03-19T05:39:50;12.00;3.50
27534;DHT22;14973;51.460;7.008;2023-03-19T05:42:15;12.00;16.00
27534;DHT22;14973;51.460;7.008;2023-03-19T05:44:41;11.90;32.30
27534;DHT22;14973;51.460;7.008;2023-03-19T05:47:07;11.80;42.50
27534;DHT22;14973;51.460;7.008;2023-03-19T05:49:34;11.80;49.50
27534;DHT22;14973;51.460;7.008;2023-03-19T05:51:59;11.80;49.30
27534;DHT22;14973;51.460;7.008;2023-03-19T05:54:25;11.80;61.90
27534;DHT22;14973;51.460;7.008;2023-03-19T05:56:51;11.70;81.70
27534;DHT22;14973;51.460;7.008;2023-03-19T05:59:16;11.70;90.50
27534;DHT22;14973;51.460;7.008;2023-03-19T06:01:42;11.60;94.80
27534;DHT22;14973;51.460;7.008;2023-03-19T06:04:08;11.50;97.20
27534;DHT22;14973;51.460;7.008;2023-03-19T06:06:34;11.50;99.30
27534;DHT22;14973;51.460;7.008;2023-03-19T06:08:59;11.50;97.30
27534;DHT22;14973;51.460;7.008;2023-03-19T06:11:25;11.50;97.30
27534;DHT22;14973;51.460;7.008;2023-03-19T06:13:51;11.50;98.40
27534;DHT22;14973;51.460;7.008;2023-03-19T06:16:17;11.40;99.40
27534;DHT22;14973;51.460;7.008;2023-03-19T06:18:43;11.40;99.90
27534;DHT22;14973;51.460;7.008;2023-03-19T06:21:10;11.40;99.90
27534;DHT22;14973;51.460;7.008;2023-03-19T06:23:35;11.50;98.30
27534;DHT22;14973;51.460;7.008;2023-03-19T06:26:01;11.50;97.70
27534;DHT22;14973;51.460;7.008;2023-03-19T06:28:27;11.50;99.70
27534;DHT22;14973;51.460;7.008;2023-03-19T06:30:55;11.50;99.90
27534;DHT22;14973;51.460;7.008;2023-03-19T06:33:21;11.50;99.90
27534;DHT22;14973;51.460;7.008;2023-03-19T06:35:47;11.50;99.90
27534;DHT22;14973;51.460;7.008;2023-03-19T06:38:13;11.40;99.90
27534;DHT22;14973;51.460;7.008;2023-03-19T06:40:38;11.40;99.90
27534;DHT22;14973;51.460;7.008;2023-03-19T06:43:04;11.40;99.90
27534;DHT22;14973;51.460;7.008;2023-03-19T06:45:30;11.40;99.90
27534;DHT22;14973;51.460;7.008;2023-03-19T06:47:55;11.30;99.90
27534;DHT22;14973;51.460;7.008;2023-03-19T06:50:22;11.40;99.90
27534;DHT22;14973;51.460;7.008;2023-03-19T06:52:47;11.50;99.90
27534;DHT22;14973;51.460;7.008;2023-03-19T06:55:13;11.50;99.90
27534;DHT22;14973;51.460;7.008;2023-03-19T06:57:39;11.50;99.90
27534;DHT22;14973;51.460;7.008;2023-03-19T07:00:05;11.50;99.90
27534;DHT22;14973;51.460;7.008;2023-03-19T07:02:31;11.60;99.90
27534;DHT22;14973;51.460;7.008;2023-03-19T07:04:57;11.70;98.80
27534;DHT22;14973;51.460;7.008;2023-03-19T07:07:23;11.70;99.90
27534;DHT22;14973;51.460;7.008;2023-03-19T07:09:48;11.70;96.20
27534;DHT22;14973;51.460;7.008;2023-03-19T07:12:14;11.70;92.30
27534;DHT22;14973;51.460;7.008;2023-03-19T07:14:39;11.70;93.30
27534;DHT22;14973;51.460;7.008;2023-03-19T07:17:05;11.80;92.60
27534;DHT22;14973;51.460;7.008;2023-03-19T07:19:31;11.80;84.00
27534;DHT22;14973;51.460;7.008;2023-03-19T07:21:56;11.80;89.20
27534;DHT22;14973;51.460;7.008;2023-03-19T07:24:22;11.80;85.00
27534;DHT22;14973;51.460;7.008;2023-03-19T07:26:47;11.80;87.60
27534;DHT22;14973;51.460;7.008;2023-03-19T07:29:13;11.80;87.00
27534;DHT22;14973;51.460;7.008;2023-03-19T07:31:39;11.90;88.70
27534;DHT22;14973;51.460;7.008;2023-03-19T07:34:05;11.90;88.10
27534;DHT22;14973;51.460;7.008;2023-03-19T07:36:30;12.00;91.10
27534;DHT22;14973;51.460;7.008;2023-03-19T07:38:56;12.10;79.40
27534;DHT22;14973;51.460;7.008;2023-03-19T07:41:22;12.10;66.60
27534;DHT22;14973;51.460;7.008;2023-03-19T07:43:48;12.20;58.80
27534;DHT22;14973;51.460;7.008;2023-03-19T07:46:13;12.30;57.40
27534;DHT22;14973;51.460;7.008;2023-03-19T07:48:39;12.40;45.20
27534;DHT22;14973;51.460;7.008;2023-03-19T07:51:05;12.40;37.90
27534;DHT22;14973;51.460;7.008;2023-03-19T07:53:31;12.50;33.10
27534;DHT22;14973;51.460;7.008;2023-03-19T07:55:57;12.50;29.10
27534;DHT22;14973;51.460;7.008;2023-03-19T07:58:22;12.50;29.00
27534;DHT22;14973;51.460;7.008;2023-03-19T08:00:48;12.50;25.40
27534;DHT22;14973;51.460;7.008;2023-03-19T08:03:14;12.50;23.10
27534;DHT22;14973;51.460;7.008;2023-03-19T08:05:40;12.60;24.50
27534;DHT22;14973;51.460;7.008;2023-03-19T08:08:06;12.60;25.30
27534;DHT22;14973;51.460;7.008;2023-03-19T08:10:32;12.60;22.40
27534;DHT22;14973;51.460;7.008;2023-03-19T08:12:57;12.60;21.60
27534;DHT22;14973;51.460;7.008;2023-03-19T08:15:23;12.70;18.90
27534;DHT22;14973;51.460;7.008;2023-03-19T08:17:55;12.60;19.10
27534;DHT22;14973;51.460;7.008;2023-03-19T08:20:21;12.60;20.20
27534;DHT22;14973;51.460;7.008;2023-03-19T08:22:48;12.70;22.90
27534;DHT22;14973;51.460;7.008;2023-03-19T08:25:15;12.60;22.40
27534;DHT22;14973;51.460;7.008;2023-03-19T08:27:40;12.60;26.70
27534;DHT22;14973;51.460;7.008;2023-03-19T08:30:08;12.60;26.70
27534;DHT22;14973;51.460;7.008;2023-03-19T08:32:34;12.70;20.70
27534;DHT22;14973;51.460;7.008;2023-03-19T08:35:00;12.70;26.70
27534;DHT22;14973;51.460;7.008;2023-03-19T08:37:26;13.00;20.40
27534;DHT22;14973;51.460;7.008;2023-03-19T08:39:52;13.20;1.00
27534;DHT22;14973;51.460;7.008;2023-03-19T08:42:18;13.30;1.00
27534;DHT22;14973;51.460;7.008;2023-03-19T08:44:44;13.30;1.00
27534;DHT22;14973;51.460;7.008;2023-03-19T08:47:10;13.30;1.00
27534;DHT22;14973;51.460;7.008;2023-03-19T08:49:36;13.50;1.00
27534;DHT22;14973;51.460;7.008;2023-03-19T08:52:02;13.60;1.00
27534;DHT22;14973;51.460;7.008;2023-03-19T08:54:28;13.70;1.00
27534;DHT22;14973;51.460;7.008;2023-03-19T08:56:54;13.70;1.00
27534;DHT22;14973;51.460;7.008;2023-03-19T08:59:19;13.90;1.00
27534;DHT22;14973;51.460;7.008;2023-03-19T09:01:49;13.90;1.00
27534;DHT22;14973;51.460;7.008;2023-03-19T09:04:14;13.90;1.00
27534;DHT22;14973;51.460;7.008;2023-03-19T09:06:40;14.00;1.00
27534;DHT22;14973;51.460;7.008;2023-03-19T09:09:06;14.20;1.00
27534;DHT22;14973;51.460;7.008;2023-03-19T09:11:31;14.30;1.00
27534;DHT22;14973;51.460;7.008;2023-03-19T09:13:57;14.30;99.90
27534;DHT22;14973;51.460;7.008;2023-03-19T09:16:23;14.30;99.90
27534;DHT22;14973;51.460;7.008;2023-03-19T09:18:50;14.10;99.90
27534;DHT22;14973;51.460;7.008;2023-03-19T09:21:16;14.10;1.00
27534;DHT22;14973;51.460;7.008;2023-03-19T09:23:41;14.10;99.90
27534;DHT22;14973;51.460;7.008;2023-03-19T09:26:07;14.40;99.90
27534;DHT22;14973;51.460;7.008;2023-03-19T09:28:34;14.50;99.90
27534;DHT22;14973;51.460;7.008;2023-03-19T09:31:00;14.80;1.00
27534;DHT22;14973;51.460;7.008;2023-03-19T09:33:31;15.20;99.90
27534;DHT22;14973;51.460;7.008;2023-03-19T09:35:57;15.70;1.00
27534;DHT22;14973;51.460;7.008;2023-03-19T09:38:23;16.30;99.90
27534;DHT22;14973;51.460;7.008;2023-03-19T09:43:58;16.80;99.90
27534;DHT22;14973;51.460;7.008;2023-03-19T09:46:42;17.00;1.00
27534;DHT22;14973;51.460;7.008;2023-03-19T09:51:56;16.60;1.00
27534;DHT22;14973;51.460;7.008;2023-03-19T09:56:58;16.80;1.00
27534;DHT22;14973;51.460;7.008;2023-03-19T09:59:25;17.00;1.00
27534;DHT22;14973;51.460;7.008;2023-03-19T10:13:23;17.00;99.90
27534;DHT22;14973;51.460;7.008;2023-03-19T10:15:52;17.10;99.90
27534;DHT22;14973;51.460;7.008;2023-03-19T10:18:23;17.00;99.90
27534;DHT22;14973;51.460;7.008;2023-03-19T10:21:54;16.70;99.90
27534;DHT22;14973;51.460;7.008;2023-03-19T10:24:00;16.60;99.90
27534;DHT22;14973;51.460;7.008;2023-03-19T10:26:32;16.60;99.90
27534;DHT22;14973;51.460;7.008;2023-03-19T10:29:11;16.70;99.90
27534;DHT22;14973;51.460;7.008;2023-03-19T10:34:36;16.60;99.90
27534;DHT22;14973;51.460;7.008;2023-03-19T10:39:42;16.70;1.00
27534;DHT22;14973;51.460;7.008;2023-03-19T10:45:27;16.90;99.90
27534;DHT22;14973;51.460;7.008;2023-03-19T10:47:55;16.90;99.90
27534;DHT22;14973;51.460;7.008;2023-03-19T10:50:34;17.10;99.90
27534;DHT22;14973;51.460;7.008;2023-03-19T10:55:56;17.20;99.90
27534;DHT22;14973;51.460;7.008;2023-03-19T10:58:29;16.90;99.90
27534;DHT22;14973;51.460;7.008;2023-03-19T11:01:15;16.70;99.90
27534;DHT22;14973;51.460;7.008;2023-03-19T11:06:28;16.20;1.00
27534;DHT22;14973;51.460;7.008;2023-03-19T11:09:27;16.00;1.00
27534;DHT22;14973;51.460;7.008;2023-03-19T11:12:04;15.60;1.00
27534;DHT22;14973;51.460;7.008;2023-03-19T11:14:40;15.50;1.00
27534;DHT22;14973;51.460;7.008;2023-03-19T11:20:53;14.70;1.00
27534;DHT22;14973;51.460;7.008;2023-03-19T11:22:54;14.50;4.90
27534;DHT22;14973;51.460;7.008;2023-03-19T11:25:36;14.30;30.00
27534;DHT22;14973;51.460;7.008;2023-03-19T11:28:17;14.30;36.50
27534;DHT22;14973;51.460;7.008;2023-03-19T11:50:37;13.30;91.80
27534;DHT22;14973;51.460;7.008;2023-03-19T12:20:31;15.60;1.00
27534;DHT22;14973;51.460;7.008;2023-03-19T12:23:05;15.80;1.00
27534;DHT22;14973;51.460;7.008;2023-03-19T12:25:38;15.90;99.90
27534;DHT22;14973;51.460;7.008;2023-03-19T12:31:18;16.30;1.00
27534;DHT22;14973;51.460;7.008;2023-03-19T12:37:19;16.30;1.00
27534;DHT22;14973;51.460;7.008;2023-03-19T12:40:16;16.30;99.90
27534;DHT22;14973;51.460;7.008;2023-03-19T12:42:45;16.40;6.50
27534;DHT22;14973;51.460;7.008;2023-03-19T12:50:44;16.60;99.90
27534;DHT22;14973;51.460;7.008;2023-03-19T12:53:32;16.70;99.90
27534;DHT22;14973;51.460;7.008;2023-03-19T12:56:05;16.70;99.90
27534;DHT22;14973;51.460;7.008;2023-03-19T13:01:20;16.40;99.90
27534;DHT22;14973;51.460;7.008;2023-03-19T13:06:33;16.30;1.00
27534;DHT22;14973;51.460;7.008;2023-03-19T13:09:37;16.30;1.00
27534;DHT22;14973;51.460;7.008;2023-03-19T13:12:17;16.30;1.00
27534;DHT22;14973;51.460;7.008;2023-03-19T13:14:51;16.10;99.90
27534;DHT22;14973;51.460;7.008;2023-03-19T13:20:00;16.00;97.30
27534;DHT22;14973;51.460;7.008;2023-03-19T13:22:33;16.10;99.90
27534;DHT22;14973;51.460;7.008;2023-03-19T13:25:00;16.30;99.90
27534;DHT22;14973;51.460;7.008;2023-03-19T13:27:31;16.60;1.00
27534;DHT22;14973;51.460;7.008;2023-03-19T13:35:34;16.20;1.00
27534;DHT22;14973;51.460;7.008;2023-03-19T13:40:45;16.30;1.00
27534;DHT22;14973;51.460;7.008;2023-03-19T13:46:37;16.50;99.90
27534;DHT22;14973;51.460;7.008;2023-03-19T13:51:46;16.50;99.90
27534;DHT22;14973;51.460;7.008;2023-03-19T13:54:22;16.40;1.00
27534;DHT22;14973;51.460;7.008;2023-03-19T13:59:40;16.60;93.60
27534;DHT22;14973;51.460;7.008;2023-03-19T14:05:03;16.80;1.00
27534;DHT22;14973;51.460;7.008;2023-03-19T14:07:36;16.80;1.00
27534;DHT22;14973;51.460;7.008;2023-03-19T14:10:26;16.80;1.00
27534;DHT22;14973;51.460;7.008;2023-03-19T14:13:57;16.80;9.00
27534;DHT22;14973;51.460;7.008;2023-03-19T14:16:08;16.70;1.00
27534;DHT22;14973;51.460;7.008;2023-03-19T14:18:39;16.70;99.90
27534;DHT22;14973;51.460;7.008;2023-03-19T14:21:08;16.80;99.90
27534;DHT22;14973;51.460;7.008;2023-03-19T14:23:39;16.90;66.80
27534;DHT22;14973;51.460;7.008;2023-03-19T14:26:25;16.80;99.90
27534;DHT22;14973;51.460;7.008;2023-03-19T14:28:58;16.80;99.90
27534;DHT22;14973;51.460;7.008;2023-03-19T14:31:31;16.80;99.90
27534;DHT22;14973;51.460;7.008;2023-03-19T14:34:06;16.90;99.90
27534;DHT22;14973;51.460;7.008;2023-03-19T14:36:47;16.90;1.10
27534;DHT22;14973;51.460;7.008;2023-03-19T14:41:42;17.00;58.60
27534;DHT22;14973;51.460;7.008;2023-03-19T14:50:17;17.20;1.00
27534;DHT22;14973;51.460;7.008;2023-03-19T14:52:59;17.20;99.90
27534;DHT22;14973;51.460;7.008;2023-03-19T14:55:36;17.30;1.00
27534;DHT22;14973;51.460;7.008;2023-03-19T14:58:03;17.20;99.90
27534;DHT22;14973;51.460;7.008;2023-03-19T15:00:46;17.20;99.90
27534;DHT22;14973;51.460;7.008;2023-03-19T15:03:27;17.00;99.90
27534;DHT22;14973;51.460;7.008;2023-03-19T15:05:59;16.70;1.00
27534;DHT22;14973;51.460;7.008;2023-03-19T15:08:26;16.50;1.00
27534;DHT22;14973;51.460;7.008;2023-03-19T15:11:01;16.40;9.40
27534;DHT22;14973;51.460;7.008;2023-03-19T15:16:46;16.00;99.90
27534;DHT22;14973;51.460;7.008;2023-03-19T15:19:21;15.90;1.00
27534;DHT22;14973;51.460;7.008;2023-03-19T15:21:48;15.80;1.00
27534;DHT22;14973;51.460;7.008;2023-03-19T15:24:16;15.70;99.90
27534;DHT22;14973;51.460;7.008;2023-03-19T15:26:44;15.70;99.90
27534;DHT22;14973;51.460;7.008;2023-03-19T15:29:10;15.60;1.00
27534;DHT22;14973;51.460;7.008;2023-03-19T15:31:42;15.60;1.00
27534;DHT22;14973;51.460;7.008;2023-03-19T15:34:25;15.60;99.90
27534;DHT22;14973;51.460;7.008;2023-03-19T15:37:03;15.60;99.90
27534;DHT22;14973;51.460;7.008;2023-03-19T15:39:34;15.70;1.00
27534;DHT22;14973;51.460;7.008;2023-03-19T15:42:02;15.70;99.90
27534;DHT22;14973;51.460;7.008;2023-03-19T15:44:43;15.80;48.20
27534;DHT22;14973;51.460;7.008;2023-03-19T15:47:16;15.80;1.00
27534;DHT22;14973;51.460;7.008;2023-03-19T15:49:50;15.80;1.00
27534;DHT22;14973;51.460;7.008;2023-03-19T15:52:18;15.80;65.40
27534;DHT22;14973;51.460;7.008;2023-03-19T15:54:44;15.60;99.90
27534;DHT22;14973;51.460;7.008;2023-03-19T15:57:11;15.50;99.90
27534;DHT22;14973;51.460;7.008;2023-03-19T15:59:39;15.60;59.60
27534;DHT22;14973;51.460;7.008;2023-03-19T16:02:24;15.60;69.30
27534;DHT22;14973;51.460;7.008;2023-03-19T16:04:50;15.50;99.90
27534;DHT22;14973;51.460;7.008;2023-03-19T16:07:25;15.40;66.50
27534;DHT22;14973;51.460;7.008;2023-03-19T16:09:52;15.30;99.90
27534;DHT22;14973;51.460;7.008;2023-03-19T16:12:37;15.20;99.90
27534;DHT22;14973;51.460;7.008;2023-03-19T16:18:29;15.20;1.00
27534;DHT22;14973;51.460;7.008;2023-03-19T16:21:00;15.20;1.00
27534;DHT22;14973;51.460;7.008;2023-03-19T16:23:31;15.10;99.90
27534;DHT22;14973;51.460;7.008;2023-03-19T16:26:24;15.10;99.90
27534;DHT22;14973;51.460;7.008;2023-03-19T16:31:43;15.10;99.90
27534;DHT22;14973;51.460;7.008;2023-03-19T16:36:56;14.90;1.00
27534;DHT22;14973;51.460;7.008;2023-03-19T16:39:33;14.90;99.90
27534;DHT22;14973;51.460;7.008;2023-03-19T16:42:13;14.90;99.90
27534;DHT22;14973;51.460;7.008;2023-03-19T16:44:41;14.80;1.00
27534;DHT22;14973;51.460;7.008;2023-03-19T16:47:12;14.70;27.00
27534;DHT22;14973;51.460;7.008;2023-03-19T16:49:39;14.70;26.40
27534;DHT22;14973;51.460;7.008;2023-03-19T16:52:05;14.60;99.90
27534;DHT22;14973;51.460;7.008;2023-03-19T16:54:33;14.50;99.90
27534;DHT22;14973;51.460;7.008;2023-03-19T16:56:59;14.50;99.90
27534;DHT22;14973;51.460;7.008;2023-03-19T16:59:29;14.50;1.00
27534;DHT22;14973;51.460;7.008;2023-03-19T17:01:55;14.40;1.00
27534;DHT22;14973;51.460;7.008;2023-03-19T17:04:22;14.40;1.00
27534;DHT22;14973;51.460;7.008;2023-03-19T17:06:48;14.40;1.00
27534;DHT22;14973;51.460;7.008;2023-03-19T17:09:14;14.30;1.00
27534;DHT22;14973;51.460;7.008;2023-03-19T17:11:42;14.20;1.00
27534;DHT22;14973;51.460;7.008;2023-03-19T17:14:19;14.20;1.00
27534;DHT22;14973;51.460;7.008;2023-03-19T17:16:46;14.20;1.00
27534;DHT22;14973;51.460;7.008;2023-03-19T17:19:20;14.20;1.00
27534;DHT22;14973;51.460;7.008;2023-03-19T17:21:48;14.10;1.00
27534;DHT22;14973;51.460;7.008;2023-03-19T17:24:27;14.10;1.00
27534;DHT22;14973;51.460;7.008;2023-03-19T17:26:53;14.00;1.00
27534;DHT22;14973;51.460;7.008;2023-03-19T17:29:19;14.00;1.00
27534;DHT22;14973;51.460;7.008;2023-03-19T17:31:47;14.00;1.00
27534;DHT22;14973;51.460;7.008;2023-03-19T17:34:17;13.90;1.00
27534;DHT22;14973;51.460;7.008;2023-03-19T17:36:49;13.90;1.00
27534;DHT22;14973;51.460;7.008;2023-03-19T17:39:15;13.90;1.00
27534;DHT22;14973;51.460;7.008;2023-03-19T17:41:41;13.70;1.00
27534;DHT22;14973;51.460;7.008;2023-03-19T17:44:06;13.80;1.00
27534;DHT22;14973;51.460;7.008;2023-03-19T17:46:37;13.70;1.00
27534;DHT22;14973;51.460;7.008;2023-03-19T17:49:03;13.70;1.00
27534;DHT22;14973;51.460;7.008;2023-03-19T17:51:29;13.60;1.00
27534;DHT22;14973;51.460;7.008;2023-03-19T17:53:55;13.60;1.00
27534;DHT22;14973;51.460;7.008;2023-03-19T17:56:23;13.60;1.00
27534;DHT22;14973;51.460;7.008;2023-03-19T17:58:52;13.50;1.00
27534;DHT22;14973;51.460;7.008;2023-03-19T18:01:21;13.50;1.00
27534;DHT22;14973;51.460;7.008;2023-03-19T18:03:48;13.40;1.00
27534;DHT22;14973;51.460;7.008;2023-03-19T18:06:19;13.40;1.00
27534;DHT22;14973;51.460;7.008;2023-03-19T18:08:46;13.40;1.00
27534;DHT22;14973;51.460;7.008;2023-03-19T18:11:12;13.40;1.00
27534;DHT22;14973;51.460;7.008;2023-03-19T18:13:38;13.40;1.00